createdAt,value
2023-03-10T00:00:13.667Z,98640.72
2023-03-10T00:02:46.601Z,98642.44
2023-03-10T00:05:16.496Z,98650.28
2023-03-10T00:07:45.776Z,98622.31
2023-03-10T00:10:16.212Z,98607.91
2023-03-10T00:12:46.122Z,98641.31
2023-03-10T00:15:15.279Z,98626.22
2023-03-10T00:17:44.081Z,98618.44
2023-03-10T00:20:14.519Z,98615.75
2023-03-10T00:22:43.413Z,98614.69
2023-03-10T00:25:12.790Z,98531.16
2023-03-10T00:27:41.218Z,98608.16
2023-03-10T00:30:12.802Z,98603.06
2023-03-10T00:32:41.669Z,98598.75
2023-03-10T00:35:10.735Z,98592.59
2023-03-10T00:37:39.953Z,98597.63
2023-03-10T00:40:14.201Z,98595.75
2023-03-10T00:42:43.270Z,98547.47
2023-03-10T00:45:14.808Z,98582.06
2023-03-10T00:47:43.768Z,98569.91
2023-03-10T00:50:13.192Z,98551.78
2023-03-10T00:52:41.931Z,98554.16
2023-03-10T00:55:10.994Z,98547.25
2023-03-10T00:57:39.705Z,98542.09
2023-03-10T01:00:10.512Z,98536.13
2023-03-10T01:02:40.286Z,98521.34
2023-03-10T01:05:09.645Z,98524.13
2023-03-10T01:07:38.396Z,98507.59
2023-03-10T01:10:08.018Z,98501.59
2023-03-10T01:12:36.447Z,98492.09
2023-03-10T01:15:05.834Z,98487.78
2023-03-10T01:17:34.247Z,98464.69
2023-03-10T01:20:06.550Z,98481.63
2023-03-10T01:22:35.219Z,98478.16
2023-03-10T01:25:04.117Z,98470.34
2023-03-10T01:27:32.884Z,98463.41
2023-03-10T01:30:01.976Z,98458.91
2023-03-10T01:32:31.399Z,98462.25
2023-03-10T01:34:59.983Z,98426.88
2023-03-10T01:37:29.789Z,98447.44
2023-03-10T01:39:58.510Z,98433.50
2023-03-10T01:42:27.233Z,98431.75
2023-03-10T01:45:31.284Z,98430.00
2023-03-10T01:48:00.033Z,98417.91
2023-03-10T01:50:28.826Z,98413.53
2023-03-10T01:52:59.503Z,98405.69
2023-03-10T01:55:33.172Z,98392.81
2023-03-10T01:58:03.592Z,98398.47
2023-03-10T02:00:32.883Z,98398.28
2023-03-10T02:03:08.878Z,98385.06
2023-03-10T02:05:41.362Z,98369.63
2023-03-10T02:08:12.597Z,98357.16
2023-03-10T02:10:41.635Z,98360.91
2023-03-10T02:13:10.348Z,98361.66
2023-03-10T02:15:40.399Z,98354.63
2023-03-10T02:18:13.469Z,98358.13
2023-03-10T02:20:49.628Z,98346.72
2023-03-10T02:23:33.207Z,98341.50
2023-03-10T02:26:13.476Z,98336.28
2023-03-10T02:28:44.022Z,98332.78
2023-03-10T02:31:14.670Z,98258.25
2023-03-10T02:33:45.501Z,98319.66
2023-03-10T02:36:21.220Z,98284.34
2023-03-10T02:38:50.647Z,98309.91
2023-03-10T02:41:26.236Z,98307.13
2023-03-10T02:43:59.780Z,98281.09
2023-03-10T02:46:30.427Z,98293.56
2023-03-10T02:49:02.409Z,98264.22
2023-03-10T02:51:43.350Z,98286.31
2023-03-10T02:54:17.569Z,98285.38
2023-03-10T02:56:46.626Z,98276.38
2023-03-10T02:59:18.096Z,98264.91
2023-03-10T03:01:50.713Z,98268.22
2023-03-10T03:04:21.229Z,98249.84
2023-03-10T03:06:50.536Z,98247.16
2023-03-10T03:09:19.568Z,98238.44
2023-03-10T03:11:49.046Z,98231.31
2023-03-10T03:14:19.969Z,98224.28
2023-03-10T03:16:50.688Z,98229.28
2023-03-10T03:19:20.475Z,98219.66
2023-03-10T03:21:50.056Z,98228.28
2023-03-10T03:24:20.981Z,98168.34
2023-03-10T03:26:50.238Z,98225.38
2023-03-10T03:29:23.801Z,98199.41
2023-03-10T03:31:53.218Z,98210.16
2023-03-10T03:34:26.165Z,98213.25
2023-03-10T03:36:58.635Z,98209.53
2023-03-10T03:39:33.038Z,98210.06
2023-03-10T03:42:05.442Z,98207.88
2023-03-10T03:44:44.713Z,98205.69
2023-03-10T03:47:14.221Z,98197.41
2023-03-10T03:49:43.609Z,98194.19
2023-03-10T03:52:13.405Z,98183.63
2023-03-10T03:54:42.194Z,98174.31
2023-03-10T03:57:10.939Z,98172.56
2023-03-10T03:59:39.503Z,98164.13
2023-03-10T04:02:09.463Z,98159.78
2023-03-10T04:04:38.467Z,98154.00
2023-03-10T04:07:07.539Z,98151.53
2023-03-10T04:09:36.622Z,98147.06
2023-03-10T04:12:05.827Z,98128.44
2023-03-10T04:14:35.069Z,98132.78
2023-03-10T04:17:04.591Z,98126.31
2023-03-10T04:19:34.499Z,98133.22
2023-03-10T04:22:11.085Z,98128.56
2023-03-10T04:24:41.784Z,98122.31
2023-03-10T04:27:11.474Z,98120.38
2023-03-10T04:29:40.861Z,98113.16
2023-03-10T04:32:09.469Z,98111.06
2023-03-10T04:34:43.118Z,98102.19
2023-03-10T04:37:13.046Z,98098.56
2023-03-10T04:39:41.498Z,98096.50
2023-03-10T04:42:10.657Z,98089.44
2023-03-10T04:44:39.513Z,98088.59
2023-03-10T04:47:09.123Z,98092.16
2023-03-10T04:49:38.541Z,98089.66
2023-03-10T04:52:12.032Z,98076.72
2023-03-10T04:54:40.814Z,98086.56
2023-03-10T04:57:09.566Z,98089.06
2023-03-10T04:59:39.017Z,98082.09
2023-03-10T05:02:07.907Z,98085.59
2023-03-10T05:04:37.016Z,98082.03
2023-03-10T05:07:06.238Z,98075.00
2023-03-10T05:09:40.207Z,98060.56
2023-03-10T05:12:09.639Z,98076.91
2023-03-10T05:14:38.849Z,98069.94
2023-03-10T05:17:08.854Z,98065.38
2023-03-10T05:19:38.278Z,98062.63
2023-03-10T05:22:11.231Z,98062.38
2023-03-10T05:24:41.126Z,98062.06
2023-03-10T05:27:10.545Z,98059.28
2023-03-10T05:29:42.617Z,98062.53
2023-03-10T05:32:18.555Z,98062.31
2023-03-10T05:34:49.273Z,98055.03
2023-03-10T05:37:18.319Z,98061.91
2023-03-10T05:39:48.396Z,98044.19
2023-03-10T05:42:21.783Z,98047.66
2023-03-10T05:44:51.339Z,98049.47
2023-03-10T05:47:20.265Z,98042.31
2023-03-10T05:49:49.805Z,98038.69
2023-03-10T05:52:19.012Z,98034.19
2023-03-10T05:54:49.619Z,98031.63
2023-03-10T05:57:18.388Z,98032.16
2023-03-10T05:59:48.210Z,98035.50
2023-03-10T06:02:17.185Z,98034.44
2023-03-10T06:04:45.930Z,98032.34
2023-03-10T06:07:14.665Z,98038.16
2023-03-10T06:09:43.532Z,98038.06
2023-03-10T06:12:13.906Z,98033.72
2023-03-10T06:14:42.584Z,98040.69
2023-03-10T06:17:11.286Z,98034.31
2023-03-10T06:19:40.012Z,98039.38
2023-03-10T06:22:08.774Z,98038.34
2023-03-10T06:24:37.647Z,98031.19
2023-03-10T06:27:07.239Z,98034.78
2023-03-10T06:29:37.374Z,98035.28
2023-03-10T06:32:07.033Z,98038.47
2023-03-10T06:34:35.999Z,98035.84
2023-03-10T06:37:04.751Z,97983.75
2023-03-10T06:39:33.650Z,98038.13
2023-03-10T06:42:02.801Z,98043.25
2023-03-10T06:44:32.035Z,98043.06
2023-03-10T06:47:05.067Z,98043.56
2023-03-10T06:49:34.821Z,98041.97
2023-03-10T06:52:03.743Z,98046.13
2023-03-10T06:54:32.558Z,98044.13
2023-03-10T06:57:01.250Z,98045.06
2023-03-10T06:59:32.847Z,98049.31
2023-03-10T07:02:03.724Z,98043.84
2023-03-10T07:04:32.711Z,98043.00
2023-03-10T07:07:01.440Z,98048.91
2023-03-10T07:09:30.231Z,98045.06
2023-03-10T07:11:58.924Z,98048.28
2023-03-10T07:14:27.668Z,98050.69
2023-03-10T07:16:56.562Z,98046.00
2023-03-10T07:19:26.927Z,98046.41
2023-03-10T07:21:55.591Z,98047.53
2023-03-10T07:24:24.303Z,98051.50
2023-03-10T07:26:53.268Z,98055.00
2023-03-10T07:29:21.944Z,98053.50
2023-03-10T07:31:50.601Z,98058.41
2023-03-10T07:34:19.296Z,98054.31
2023-03-10T07:36:49.502Z,98050.94
2023-03-10T07:39:18.312Z,98049.09
2023-03-10T07:41:46.997Z,98050.22
2023-03-10T07:44:15.708Z,98049.94
2023-03-10T07:46:44.418Z,98052.97
2023-03-10T07:49:13.096Z,98054.16
2023-03-10T07:51:41.787Z,98058.72
2023-03-10T07:54:14.113Z,98063.38
2023-03-10T07:56:42.832Z,98060.25
2023-03-10T07:59:11.526Z,98059.63
2023-03-10T08:01:40.037Z,98016.72
2023-03-10T08:04:09.082Z,98057.03
2023-03-10T08:06:38.171Z,98056.28
2023-03-10T08:09:06.876Z,98063.00
2023-03-10T08:11:37.011Z,98059.88
2023-03-10T08:14:05.828Z,98053.00
2023-03-10T08:16:34.630Z,98048.75
2023-03-10T08:19:03.341Z,98054.59
2023-03-10T08:21:32.061Z,98049.84
2023-03-10T08:24:00.899Z,98055.91
2023-03-10T08:26:29.623Z,98048.06
2023-03-10T08:28:59.704Z,98049.91
2023-03-10T08:31:28.496Z,98058.25
2023-03-10T08:33:57.956Z,98058.34
2023-03-10T08:36:29.747Z,98062.09
2023-03-10T08:39:01.151Z,98074.44
2023-03-10T08:41:31.840Z,98061.66
2023-03-10T08:44:02.560Z,98067.31
2023-03-10T08:46:34.676Z,98051.03
2023-03-10T08:49:03.547Z,98059.78
2023-03-10T08:51:31.943Z,98066.31
2023-03-10T08:54:01.404Z,98015.88
2023-03-10T08:56:30.308Z,97962.69
2023-03-10T08:59:00.817Z,98066.25
2023-03-10T09:01:34.446Z,97997.19
2023-03-10T09:04:05.182Z,98065.13
2023-03-10T09:06:34.362Z,98068.31
2023-03-10T09:09:03.906Z,98064.47
2023-03-10T09:11:38.717Z,98025.81
2023-03-10T09:14:09.875Z,98008.38
2023-03-10T09:16:40.726Z,98068.00
2023-03-10T09:19:09.287Z,98064.56
2023-03-10T09:21:38.571Z,98068.38
2023-03-10T09:24:07.682Z,98055.28
2023-03-10T09:26:36.419Z,98073.75
2023-03-10T09:29:05.821Z,98063.41
2023-03-10T09:31:38.303Z,98073.16
2023-03-10T09:34:11.590Z,98079.34
2023-03-10T09:36:40.311Z,98078.16
2023-03-10T09:39:08.996Z,98057.44
2023-03-10T09:42:18.922Z,98078.69
2023-03-10T09:45:04.386Z,98075.75
2023-03-10T09:47:55.244Z,98068.25
2023-03-10T09:50:39.894Z,98082.34
2023-03-10T09:53:31.278Z,98091.25
2023-03-10T09:56:00.005Z,98086.50
2023-03-10T09:58:57.654Z,98098.53
2023-03-10T10:01:32.933Z,98016.38
2023-03-10T10:04:09.196Z,98074.31
2023-03-10T10:06:44.256Z,98089.88
2023-03-10T10:09:25.478Z,98088.78
2023-03-10T10:11:53.889Z,98096.22
2023-03-10T10:14:31.847Z,98068.22
2023-03-10T10:17:14.605Z,98089.09
2023-03-10T10:19:45.341Z,98090.78
2023-03-10T10:22:24.543Z,98069.47
2023-03-10T10:25:17.651Z,98087.06
2023-03-10T10:27:48.482Z,98090.31
2023-03-10T10:30:33.704Z,98086.66
2023-03-10T10:33:05.090Z,98056.63
2023-03-10T10:35:36.734Z,98093.72
2023-03-10T10:38:22.463Z,98095.72
2023-03-10T10:40:53.581Z,97989.25
2023-03-10T10:43:23.195Z,98098.78
2023-03-10T10:45:56.990Z,98086.47
2023-03-10T10:48:41.792Z,98056.81
2023-03-10T10:51:27.294Z,98092.34
2023-03-10T10:53:57.974Z,98028.31
2023-03-10T10:56:28.634Z,98093.56
2023-03-10T10:59:08.272Z,98100.03
2023-03-10T11:02:00.351Z,98096.25
2023-03-10T11:04:41.796Z,98075.69
2023-03-10T11:07:18.964Z,98092.91
2023-03-10T11:09:49.358Z,98084.56
2023-03-10T11:12:27.546Z,98056.25
2023-03-10T11:15:12.358Z,98081.38
2023-03-10T11:17:48.495Z,98090.00
2023-03-10T11:20:29.313Z,98082.81
2023-03-10T11:23:13.383Z,98075.38
2023-03-10T11:25:55.705Z,98011.72
2023-03-10T11:28:42.187Z,98066.47
2023-03-10T11:31:41.044Z,98071.97
2023-03-10T11:34:21.307Z,98065.94
2023-03-10T11:37:04.944Z,98009.69
2023-03-10T11:39:52.985Z,98065.28
2023-03-10T11:42:33.436Z,98036.84
2023-03-10T11:45:36.415Z,98046.03
2023-03-10T11:48:44.552Z,98069.75
2023-03-10T11:51:26.529Z,98073.22
2023-03-10T11:53:59.089Z,98065.31
2023-03-10T11:56:29.482Z,98072.22
2023-03-10T11:59:09.404Z,98041.47
2023-03-10T12:01:46.509Z,98075.91
2023-03-10T12:04:22.552Z,98053.66
2023-03-10T12:07:00.031Z,98025.69
2023-03-10T12:09:42.200Z,98029.88
2023-03-10T12:12:18.119Z,98021.88
2023-03-10T12:14:49.527Z,98059.91
2023-03-10T12:17:20.045Z,98051.34
2023-03-10T12:20:28.559Z,98042.88
2023-03-10T12:22:58.761Z,98056.16
2023-03-10T12:25:47.833Z,98048.66
2023-03-10T12:28:26.302Z,98028.72
2023-03-10T12:30:58.765Z,97988.50
2023-03-10T12:33:50.337Z,98035.31
2023-03-10T12:36:33.611Z,98009.69
2023-03-10T12:39:03.556Z,98042.53
2023-03-10T12:41:49.634Z,97994.09
2023-03-10T12:44:51.034Z,98028.66
2023-03-10T12:47:50.212Z,98043.19
2023-03-10T12:50:35.799Z,98040.13
2023-03-10T12:53:26.514Z,98043.28
2023-03-10T12:56:33.140Z,98034.75
2023-03-10T12:59:14.642Z,98038.56
2023-03-10T13:01:56.033Z,98027.34
2023-03-10T13:04:29.537Z,98026.19
2023-03-10T13:07:04.179Z,97982.47
2023-03-10T13:09:39.098Z,98031.88
2023-03-10T13:12:16.668Z,98028.53
2023-03-10T13:14:45.904Z,98021.78
2023-03-10T13:17:25.321Z,97900.88
2023-03-10T13:20:15.370Z,98001.84
2023-03-10T13:22:56.605Z,98029.00
2023-03-10T13:25:26.824Z,98018.88
2023-03-10T13:27:57.611Z,98023.91
2023-03-10T13:30:28.053Z,97971.72
2023-03-10T13:32:59.452Z,98019.81
2023-03-10T13:35:35.891Z,97840.38
2023-03-10T13:38:13.311Z,98016.03
2023-03-10T13:40:47.051Z,98011.94
2023-03-10T13:43:40.423Z,98018.06
2023-03-10T13:46:17.224Z,98014.75
2023-03-10T13:48:48.215Z,98005.25
2023-03-10T13:51:25.081Z,98003.59
2023-03-10T13:53:58.644Z,98006.28
2023-03-10T13:56:34.863Z,97972.63
2023-03-10T13:59:06.450Z,98008.91
2023-03-10T14:01:43.705Z,98006.50
2023-03-10T14:04:19.779Z,98003.09
2023-03-10T14:07:09.739Z,97995.25
2023-03-10T14:09:38.406Z,98000.97
2023-03-10T14:12:07.884Z,97991.38
2023-03-10T14:14:39.547Z,97983.19
2023-03-10T14:17:31.624Z,97984.44
2023-03-10T14:20:00.743Z,97989.75
2023-03-10T14:22:41.422Z,97986.66
2023-03-10T14:25:15.731Z,97984.97
2023-03-10T14:27:47.978Z,97978.38
2023-03-10T14:30:27.020Z,97940.81
2023-03-10T14:33:00.906Z,97967.19
2023-03-10T14:35:31.434Z,97952.81
2023-03-10T14:38:01.689Z,97973.44
2023-03-10T14:40:30.417Z,97944.34
2023-03-10T14:43:03.084Z,97983.00
2023-03-10T14:45:35.131Z,97979.16
2023-03-10T14:48:13.116Z,97979.94
2023-03-10T14:50:42.251Z,97974.09
2023-03-10T14:53:16.075Z,97980.94
2023-03-10T14:55:48.910Z,97978.13
2023-03-10T14:58:22.084Z,97981.41
2023-03-10T15:00:51.769Z,97851.88
2023-03-10T15:03:20.999Z,97971.25
2023-03-10T15:05:50.045Z,97973.66
2023-03-10T15:08:20.549Z,97970.16
2023-03-10T15:10:52.420Z,97972.81
2023-03-10T15:13:24.818Z,97960.34
2023-03-10T15:15:54.709Z,97959.28
2023-03-10T15:18:27.031Z,97937.72
2023-03-10T15:20:58.914Z,97951.16
2023-03-10T15:23:30.821Z,97968.31
2023-03-10T15:26:04.442Z,97916.63
2023-03-10T15:28:34.921Z,97954.09
2023-03-10T15:31:05.381Z,97954.31
2023-03-10T15:33:34.148Z,97943.28
2023-03-10T15:36:03.391Z,97951.25
2023-03-10T15:38:33.815Z,97946.50
2023-03-10T15:41:04.649Z,97950.34
2023-03-10T15:43:33.343Z,97949.28
2023-03-10T15:46:08.718Z,97952.50
2023-03-10T15:48:37.718Z,97947.66
2023-03-10T15:51:10.473Z,97948.00
2023-03-10T15:53:40.510Z,97947.50
2023-03-10T15:56:12.324Z,97943.94
2023-03-10T15:58:41.281Z,97944.63
2023-03-10T16:01:12.157Z,97928.88
2023-03-10T16:03:41.132Z,97936.09
2023-03-10T16:06:10.979Z,97940.88
2023-03-10T16:08:41.809Z,97926.44
2023-03-10T16:11:19.441Z,97947.91
2023-03-10T16:13:49.731Z,97921.72
2023-03-10T16:16:23.891Z,97895.91
2023-03-10T16:18:52.603Z,97942.00
2023-03-10T16:21:22.023Z,97933.34
2023-03-10T16:23:52.651Z,97951.56
2023-03-10T16:26:24.234Z,97957.31
2023-03-10T16:28:55.684Z,97961.38
2023-03-10T16:31:27.504Z,97937.31
2023-03-10T16:33:59.632Z,97972.81
2023-03-10T16:36:30.449Z,97973.44
2023-03-10T16:39:01.068Z,97979.47
2023-03-10T16:41:30.256Z,97980.72
2023-03-10T16:43:59.274Z,97983.16
2023-03-10T16:46:30.579Z,97970.13
2023-03-10T16:49:01.992Z,97984.34
2023-03-10T16:51:35.482Z,97990.59
2023-03-10T16:54:08.926Z,97993.31
2023-03-10T16:56:40.776Z,97992.63
2023-03-10T16:59:10.096Z,97995.78
2023-03-10T17:01:39.483Z,97979.19
2023-03-10T17:04:09.897Z,97981.06
2023-03-10T17:06:45.515Z,97989.50
2023-03-10T17:09:18.390Z,97961.78
2023-03-10T17:11:54.703Z,97989.22
2023-03-10T17:14:25.769Z,97997.47
2023-03-10T17:16:57.135Z,97999.56
2023-03-10T17:19:29.904Z,97994.94
2023-03-10T17:22:00.129Z,97993.31
2023-03-10T17:24:31.353Z,97990.84
2023-03-10T17:27:00.668Z,97992.06
2023-03-10T17:29:30.124Z,97991.31
2023-03-10T17:32:00.151Z,97989.84
2023-03-10T17:34:29.531Z,97982.13
2023-03-10T17:37:00.042Z,97978.13
2023-03-10T17:39:33.727Z,97985.75
2023-03-10T17:42:04.538Z,97974.53
2023-03-10T17:44:33.770Z,97974.63
2023-03-10T17:47:02.738Z,97917.00
2023-03-10T17:49:33.542Z,97970.72
2023-03-10T17:52:03.044Z,97966.59
2023-03-10T17:54:33.672Z,97965.13
2023-03-10T17:57:02.319Z,97949.66
2023-03-10T17:59:32.855Z,97959.63
2023-03-10T18:02:03.586Z,97956.41
2023-03-10T18:04:34.122Z,97945.84
2023-03-10T18:07:02.920Z,97945.78
2023-03-10T18:09:34.117Z,97942.28
2023-03-10T18:12:03.298Z,97936.16
2023-03-10T18:14:32.849Z,97935.13
2023-03-10T18:17:03.196Z,97942.13
2023-03-10T18:19:35.684Z,97931.66
2023-03-10T18:22:05.883Z,97930.78
2023-03-10T18:24:36.832Z,97930.03
2023-03-10T18:27:06.272Z,97922.03
2023-03-10T18:29:34.793Z,97914.03
2023-03-10T18:32:03.945Z,97917.78
2023-03-10T18:34:32.945Z,97916.91
2023-03-10T18:37:02.438Z,97912.84
2023-03-10T18:39:31.473Z,97874.97
2023-03-10T18:42:02.392Z,97902.44
2023-03-10T18:44:31.290Z,97907.19
2023-03-10T18:47:00.021Z,97904.47
2023-03-10T18:49:28.574Z,97896.88
2023-03-10T18:51:57.578Z,97891.81
2023-03-10T18:54:26.228Z,97827.06
2023-03-10T18:56:55.557Z,97890.66
2023-03-10T18:59:26.460Z,97890.75
2023-03-10T19:01:56.005Z,97844.13
2023-03-10T19:04:25.878Z,97886.69
2023-03-10T19:06:54.971Z,97881.50
2023-03-10T19:09:24.548Z,97879.16
2023-03-10T19:11:54.504Z,97875.81
2023-03-10T19:14:25.408Z,97870.91
2023-03-10T19:16:54.482Z,97878.22
2023-03-10T19:19:23.560Z,97881.38
2023-03-10T19:21:52.758Z,97852.50
2023-03-10T19:24:21.520Z,97883.09
2023-03-10T19:26:51.451Z,97871.88
2023-03-10T19:29:20.044Z,97873.16
2023-03-10T19:31:50.977Z,97870.44
2023-03-10T19:34:20.698Z,97855.34
2023-03-10T19:36:49.530Z,97850.59
2023-03-10T19:39:18.528Z,97880.84
2023-03-10T19:41:48.039Z,97874.00
2023-03-10T19:44:16.915Z,97874.00
2023-03-10T19:46:45.753Z,97867.66
2023-03-10T19:49:18.847Z,97870.75
2023-03-10T19:51:48.453Z,97871.81
2023-03-10T19:54:18.281Z,97875.91
2023-03-10T19:56:49.535Z,97871.91
2023-03-10T19:59:18.207Z,97816.94
2023-03-10T20:01:49.374Z,97868.66
2023-03-10T20:04:20.125Z,97866.03
2023-03-10T20:06:49.107Z,97835.53
2023-03-10T20:09:19.119Z,97862.75
2023-03-10T20:11:47.729Z,97864.69
2023-03-10T20:14:16.286Z,97860.34
2023-03-10T20:16:45.104Z,97861.34
2023-03-10T20:19:13.940Z,97859.16
2023-03-10T20:21:44.530Z,97832.03
2023-03-10T20:24:13.430Z,97856.19
2023-03-10T20:26:42.903Z,97855.31
2023-03-10T20:29:12.313Z,97853.53
2023-03-10T20:31:41.215Z,97853.66
2023-03-10T20:34:21.998Z,97855.69
2023-03-10T20:36:52.376Z,97851.53
2023-03-10T20:39:21.170Z,97852.47
2023-03-10T20:41:50.879Z,97854.16
2023-03-10T20:44:19.869Z,97852.28
2023-03-10T20:46:48.659Z,97850.41
2023-03-10T20:49:17.750Z,97856.53
2023-03-10T20:51:46.462Z,97855.53
2023-03-10T20:54:17.818Z,97856.19
2023-03-10T20:56:46.885Z,97852.03
2023-03-10T20:59:15.821Z,97848.53
2023-03-10T21:01:45.058Z,97852.97
2023-03-10T21:04:14.459Z,97845.22
2023-03-10T21:06:43.254Z,97848.69
2023-03-10T21:09:11.941Z,97844.38
2023-03-10T21:11:42.077Z,97845.41
2023-03-10T21:14:10.822Z,97847.84
2023-03-10T21:16:42.211Z,97835.09
2023-03-10T21:19:11.590Z,97800.41
2023-03-10T21:21:40.998Z,97837.75
2023-03-10T21:24:10.975Z,97835.97
2023-03-10T21:26:41.959Z,97835.34
2023-03-10T21:29:10.844Z,97831.16
2023-03-10T21:31:39.729Z,97838.41
2023-03-10T21:34:08.983Z,97835.34
2023-03-10T21:36:37.767Z,97832.28
2023-03-10T21:39:09.174Z,97831.00
2023-03-10T21:41:38.412Z,97828.59
2023-03-10T21:44:09.415Z,97825.38
2023-03-10T21:46:38.668Z,97822.28
2023-03-10T21:49:08.417Z,97818.19
2023-03-10T21:51:37.814Z,97833.31
2023-03-10T21:54:07.391Z,97825.31
2023-03-10T21:56:36.328Z,97820.59
2023-03-10T21:59:05.522Z,97825.66
2023-03-10T22:01:35.478Z,97800.47
2023-03-10T22:04:05.802Z,97829.88
2023-03-10T22:06:35.426Z,97829.13
2023-03-10T22:09:05.693Z,97796.34
2023-03-10T22:11:34.820Z,97769.47
2023-03-10T22:14:04.465Z,97817.75
2023-03-10T22:16:34.967Z,97818.06
2023-03-10T22:19:03.925Z,97823.47
2023-03-10T22:21:33.363Z,97819.34
2023-03-10T22:24:03.481Z,97820.72
2023-03-10T22:26:32.529Z,97823.66
2023-03-10T22:29:01.944Z,97821.28
2023-03-10T22:31:31.584Z,97818.22
2023-03-10T22:34:01.592Z,97828.47
2023-03-10T22:36:31.048Z,97826.09
2023-03-10T22:39:00.097Z,97829.75
2023-03-10T22:41:29.204Z,97822.03
2023-03-10T22:43:58.312Z,97841.56
2023-03-10T22:46:27.495Z,97843.28
2023-03-10T22:48:56.280Z,97839.44
2023-03-10T22:51:26.489Z,97840.38
2023-03-10T22:53:55.533Z,97845.81
2023-03-10T22:56:24.272Z,97854.78
2023-03-10T22:58:53.112Z,97848.75
2023-03-10T23:01:23.890Z,97851.72
2023-03-10T23:03:52.668Z,97853.06
2023-03-10T23:06:23.360Z,97860.88
2023-03-10T23:08:53.682Z,97864.44
2023-03-10T23:11:22.986Z,97867.91
2023-03-10T23:13:51.833Z,97867.00
2023-03-10T23:16:20.839Z,97862.72
2023-03-10T23:18:49.606Z,97860.03
2023-03-10T23:21:20.576Z,97869.00
2023-03-10T23:23:49.254Z,97862.03
2023-03-10T23:26:19.418Z,97874.09
2023-03-10T23:28:48.124Z,97867.13
2023-03-10T23:31:17.233Z,97872.88
2023-03-10T23:33:47.102Z,97870.31
2023-03-10T23:36:16.235Z,97871.19
2023-03-10T23:38:45.107Z,97871.88
2023-03-10T23:41:14.036Z,97876.06
2023-03-10T23:43:44.154Z,97878.25
2023-03-10T23:46:13.110Z,97884.50
2023-03-10T23:48:41.835Z,97876.63
2023-03-10T23:51:15.611Z,97842.00
2023-03-10T23:53:44.762Z,97887.41
2023-03-10T23:56:13.519Z,97883.47
2023-03-10T23:58:43.817Z,97887.47
